createdAt,value
2019-05-03T00:00:22.293Z,84.118652
2019-05-03T00:01:21.824Z,84.527588
2019-05-03T00:02:21.813Z,84.735107
2019-05-03T00:03:22.478Z,84.527588
2019-05-03T00:04:22.354Z,84.838867
2019-05-03T00:05:22.102Z,83.703613
2019-05-03T00:06:22.616Z,84.222412
2019-05-03T00:07:22.373Z,84.222412
2019-05-03T00:08:22.252Z,84.320068
2019-05-03T00:09:22.549Z,84.423828
2019-05-03T00:10:22.553Z,84.631348
2019-05-03T00:11:22.687Z,84.527588
2019-05-03T00:12:22.825Z,84.936523
2019-05-03T00:13:22.817Z,84.838867
2019-05-03T00:14:22.960Z,84.527588
2019-05-03T00:15:22.969Z,84.838867
2019-05-03T00:16:22.921Z,84.735107
2019-05-03T00:17:23.053Z,84.631348
2019-05-03T00:18:23.178Z,84.527588
2019-05-03T00:19:23.323Z,84.771729
2019-05-03T00:20:23.324Z,84.771729
2019-05-03T00:21:23.308Z,84.735107
2019-05-03T00:22:23.438Z,84.838867
2019-05-03T00:23:23.557Z,84.631348
2019-05-03T00:24:23.866Z,84.771729
2019-05-03T00:25:23.847Z,84.667969
2019-05-03T00:26:23.818Z,84.771729
2019-05-03T00:27:23.932Z,84.979248
2019-05-03T00:28:24.053Z,85.388184
2019-05-03T00:29:24.246Z,85.699463
2019-05-03T00:30:24.227Z,85.595703
2019-05-03T00:31:24.361Z,85.180664
2019-05-03T00:32:24.472Z,85.284424
2019-05-03T00:33:24.602Z,85.803223
2019-05-03T00:34:24.751Z,85.900879
2019-05-03T00:35:24.924Z,86.004639
2019-05-03T00:36:25.040Z,85.491943
2019-05-03T00:37:25.059Z,85.900879
2019-05-03T00:38:25.179Z,85.900879
2019-05-03T00:39:25.175Z,85.803223
2019-05-03T00:40:25.215Z,85.803223
2019-05-03T00:41:25.233Z,85.803223
2019-05-03T00:42:25.237Z,85.900879
2019-05-03T00:43:25.394Z,85.900879
2019-05-03T00:44:25.532Z,85.803223
2019-05-03T00:45:26.686Z,86.212158
2019-05-03T00:46:25.693Z,86.004639
2019-05-03T00:47:25.836Z,86.108398
2019-05-03T00:48:25.980Z,86.108398
2019-05-03T00:49:25.999Z,86.212158
2019-05-03T00:50:26.038Z,86.108398
2019-05-03T00:51:26.033Z,86.108398
2019-05-03T00:52:26.028Z,86.212158
2019-05-03T00:53:26.018Z,86.419678
2019-05-03T00:54:26.169Z,86.419678
2019-05-03T00:55:26.353Z,86.212158
2019-05-03T00:56:26.362Z,86.108398
2019-05-03T00:57:26.503Z,86.212158
2019-05-03T00:58:26.526Z,86.315918
2019-05-03T00:59:26.513Z,86.315918
2019-05-03T01:00:26.656Z,86.517334
2019-05-03T01:01:26.643Z,86.517334
2019-05-03T01:02:26.789Z,86.828613
2019-05-03T01:03:26.930Z,86.828613
2019-05-03T01:04:26.936Z,86.315918
2019-05-03T01:05:26.999Z,86.724854
2019-05-03T01:06:26.994Z,87.133789
2019-05-03T01:07:27.013Z,87.036133
2019-05-03T01:08:27.043Z,86.932373
2019-05-03T01:09:27.043Z,87.133789
2019-05-03T01:10:27.086Z,87.133789
2019-05-03T01:11:27.049Z,87.341309
2019-05-03T01:12:27.042Z,87.548828
2019-05-03T01:13:27.067Z,87.548828
2019-05-03T01:14:27.102Z,87.896729
2019-05-03T01:15:27.110Z,87.487793
2019-05-03T01:16:27.162Z,87.487793
2019-05-03T01:17:27.181Z,87.792969
2019-05-03T01:18:27.154Z,87.689209
2019-05-03T01:19:27.329Z,87.689209
2019-05-03T01:20:27.342Z,88.305664
2019-05-03T01:21:27.382Z,88.104248
2019-05-03T01:22:27.519Z,87.792969
2019-05-03T01:23:27.560Z,88.000488
2019-05-03T01:24:27.582Z,88.104248
2019-05-03T01:25:32.084Z,88.104248
2019-05-03T01:26:27.674Z,88.104248
2019-05-03T01:27:27.645Z,87.896729
2019-05-03T01:28:27.669Z,87.792969
2019-05-03T01:29:27.795Z,87.792969
2019-05-03T01:30:27.804Z,88.104248
2019-05-03T01:31:27.899Z,88.201904
2019-05-03T01:32:27.967Z,87.792969
2019-05-03T01:33:27.972Z,87.896729
2019-05-03T01:34:28.039Z,88.104248
2019-05-03T01:35:28.064Z,88.201904
2019-05-03T01:36:28.141Z,88.409424
2019-05-03T01:37:28.148Z,88.409424
2019-05-03T01:38:28.149Z,88.305664
2019-05-03T01:39:28.163Z,88.201904
2019-05-03T01:40:28.296Z,88.000488
2019-05-03T01:41:28.393Z,87.896729
2019-05-03T01:42:28.454Z,88.000488
2019-05-03T01:43:28.457Z,88.000488
2019-05-03T01:44:28.443Z,88.000488
2019-05-03T01:45:28.445Z,87.896729
2019-05-03T01:46:28.479Z,87.896729
2019-05-03T01:47:28.509Z,88.000488
2019-05-03T01:48:28.532Z,87.792969
2019-05-03T01:49:28.521Z,88.000488
2019-05-03T01:50:28.531Z,88.201904
2019-05-03T01:51:28.563Z,87.792969
2019-05-03T01:52:28.616Z,87.792969
2019-05-03T01:53:28.669Z,88.000488
2019-05-03T01:54:28.683Z,88.104248
2019-05-03T01:55:28.683Z,88.104248
2019-05-03T01:56:28.837Z,88.305664
2019-05-03T01:57:28.886Z,88.104248
2019-05-03T01:58:28.900Z,88.201904
2019-05-03T01:59:29.034Z,88.201904
2019-05-03T02:00:29.031Z,88.409424
2019-05-03T02:01:29.178Z,88.000488
2019-05-03T02:02:29.203Z,87.896729
2019-05-03T02:03:29.286Z,88.104248
2019-05-03T02:04:31.968Z,88.305664
2019-05-03T02:05:29.385Z,88.000488
2019-05-03T02:06:29.382Z,88.104248
2019-05-03T02:07:29.393Z,87.689209
2019-05-03T02:08:29.473Z,87.896729
2019-05-03T02:09:29.465Z,87.896729
2019-05-03T02:10:29.627Z,87.487793
2019-05-03T02:11:29.641Z,87.689209
2019-05-03T02:12:29.654Z,87.585449
2019-05-03T02:13:29.843Z,88.104248
2019-05-03T02:14:31.649Z,88.201904
2019-05-03T02:15:32.641Z,88.201904
2019-05-03T02:16:30.018Z,88.104248
2019-05-03T02:17:31.863Z,88.104248
2019-05-03T02:18:31.795Z,88.104248
2019-05-03T02:19:30.190Z,87.896729
2019-05-03T02:20:32.371Z,87.896729
2019-05-03T02:21:32.177Z,88.000488
2019-05-03T02:22:31.916Z,88.104248
2019-05-03T02:23:31.922Z,88.201904
2019-05-03T02:24:32.713Z,88.104248
2019-05-03T02:25:32.308Z,88.037109
2019-05-03T02:26:31.757Z,88.037109
2019-05-03T02:27:32.557Z,88.037109
2019-05-03T02:28:32.541Z,88.037109
2019-05-03T02:29:32.525Z,88.140869
2019-05-03T02:30:33.128Z,88.244629
2019-05-03T02:31:32.723Z,88.140869
2019-05-03T02:32:33.067Z,88.140869
2019-05-03T02:33:32.843Z,88.244629
2019-05-03T02:34:32.642Z,88.555908
2019-05-03T02:35:33.334Z,88.452148
2019-05-03T02:36:33.652Z,88.555908
2019-05-03T02:37:32.983Z,88.555908
2019-05-03T02:38:33.734Z,88.452148
2019-05-03T02:39:33.388Z,88.452148
2019-05-03T02:40:33.780Z,88.452148
2019-05-03T02:41:32.092Z,88.452148
2019-05-03T02:42:32.085Z,88.555908
2019-05-03T02:43:32.120Z,88.452148
2019-05-03T02:44:35.465Z,88.555908
2019-05-03T02:45:35.163Z,88.452148
2019-05-03T02:46:35.836Z,88.452148
2019-05-03T02:47:35.546Z,88.555908
2019-05-03T02:48:32.241Z,88.555908
2019-05-03T02:49:35.223Z,88.555908
2019-05-03T02:50:32.316Z,88.757324
2019-05-03T02:51:32.307Z,88.555908
2019-05-03T02:52:35.705Z,88.555908
2019-05-03T02:53:32.337Z,88.452148
2019-05-03T02:54:35.228Z,88.555908
2019-05-03T02:55:35.910Z,88.757324
2019-05-03T02:56:35.667Z,88.659668
2019-05-03T02:57:35.136Z,88.659668
2019-05-03T02:58:35.788Z,88.659668
2019-05-03T02:59:34.672Z,88.555908
2019-05-03T03:00:36.125Z,88.452148
2019-05-03T03:01:35.537Z,88.555908
2019-05-03T03:02:36.407Z,88.659668
2019-05-03T03:03:35.570Z,88.659668
2019-05-03T03:04:35.297Z,88.757324
2019-05-03T03:05:35.253Z,88.757324
2019-05-03T03:06:36.637Z,88.757324
2019-05-03T03:07:33.296Z,88.757324
2019-05-03T03:08:36.749Z,88.757324
2019-05-03T03:09:35.902Z,88.861084
2019-05-03T03:10:35.557Z,88.757324
2019-05-03T03:11:35.535Z,88.659668
2019-05-03T03:12:35.504Z,88.555908
2019-05-03T03:13:36.529Z,88.348389
2019-05-03T03:14:35.992Z,88.140869
2019-05-03T03:15:36.122Z,88.659668
2019-05-03T03:16:36.021Z,88.757324
2019-05-03T03:17:36.354Z,88.964844
2019-05-03T03:18:36.359Z,88.964844
2019-05-03T03:19:35.312Z,89.068604
2019-05-03T03:20:35.670Z,88.861084
2019-05-03T03:21:35.992Z,88.757324
2019-05-03T03:22:36.240Z,88.964844
2019-05-03T03:23:35.470Z,89.068604
2019-05-03T03:24:36.092Z,88.757324
2019-05-03T03:25:36.101Z,88.964844
2019-05-03T03:26:41.276Z,89.068604
2019-05-03T03:27:36.049Z,88.964844
2019-05-03T03:28:35.904Z,88.964844
2019-05-03T03:29:35.975Z,88.964844
2019-05-03T03:30:37.866Z,88.964844
2019-05-03T03:31:37.767Z,88.861084
2019-05-03T03:32:38.358Z,88.964844
2019-05-03T03:33:39.633Z,88.861084
2019-05-03T03:34:38.501Z,88.964844
2019-05-03T03:35:38.007Z,88.964844
2019-05-03T03:36:49.487Z,88.964844
2019-05-03T03:37:35.410Z,88.861084
2019-05-03T03:38:35.444Z,88.757324
2019-05-03T03:39:36.046Z,88.861084
2019-05-03T03:40:35.854Z,88.757324
2019-05-03T03:41:35.470Z,88.555908
2019-05-03T03:42:35.963Z,88.452148
2019-05-03T03:43:35.573Z,88.555908
2019-05-03T03:44:36.251Z,88.659668
2019-05-03T03:45:35.914Z,88.659668
2019-05-03T03:46:35.858Z,87.939453
2019-05-03T03:47:35.934Z,87.939453
2019-05-03T03:48:35.692Z,87.939453
2019-05-03T03:49:35.826Z,88.037109
2019-05-03T03:50:36.188Z,87.939453
2019-05-03T03:51:35.989Z,87.976074
2019-05-03T03:52:36.186Z,87.976074
2019-05-03T03:53:36.142Z,88.079834
2019-05-03T03:54:36.250Z,88.452148
2019-05-03T03:55:36.326Z,88.452148
2019-05-03T03:56:53.716Z,88.452148
2019-05-03T03:57:37.466Z,88.348389
2019-05-03T03:58:36.514Z,88.348389
2019-05-03T03:59:36.721Z,88.391113
2019-05-03T04:00:36.645Z,88.494873
2019-05-03T04:01:36.855Z,88.391113
2019-05-03T04:02:36.749Z,88.287354
2019-05-03T04:03:36.810Z,88.391113
2019-05-03T04:04:36.873Z,88.494873
2019-05-03T04:05:36.940Z,88.287354
2019-05-03T04:06:37.034Z,88.287354
2019-05-03T04:07:37.066Z,88.391113
2019-05-03T04:08:37.131Z,88.079834
2019-05-03T04:09:37.183Z,88.183594
2019-05-03T04:10:37.251Z,88.079834
2019-05-03T04:11:37.390Z,87.976074
2019-05-03T04:12:37.389Z,87.670898
2019-05-03T04:13:37.453Z,87.774658
2019-05-03T04:14:37.525Z,88.079834
2019-05-03T04:15:37.598Z,87.976074
2019-05-03T04:16:37.725Z,87.670898
2019-05-03T04:17:37.678Z,87.670898
2019-05-03T04:18:37.748Z,87.359619
2019-05-03T04:19:37.833Z,87.463379
2019-05-03T04:20:37.892Z,87.567139
2019-05-03T04:21:38.001Z,87.567139
2019-05-03T04:22:38.121Z,87.670898
2019-05-03T04:23:38.167Z,87.976074
2019-05-03T04:24:38.238Z,87.567139
2019-05-03T04:25:38.301Z,87.463379
2019-05-03T04:26:38.374Z,86.846924
2019-05-03T04:27:38.474Z,86.846924
2019-05-03T04:28:38.372Z,86.950684
2019-05-03T04:29:38.450Z,87.054443
2019-05-03T04:30:38.511Z,87.1521
2019-05-03T04:31:38.591Z,86.431885
2019-05-03T04:32:38.791Z,86.535645
2019-05-03T04:33:38.763Z,86.743164
2019-05-03T04:34:38.850Z,86.334229
2019-05-03T04:35:39.062Z,86.126709
2019-05-03T04:36:38.935Z,86.230469
2019-05-03T04:37:39.033Z,85.81543
2019-05-03T04:38:39.124Z,84.375
2019-05-03T04:39:39.204Z,84.47876
2019-05-03T04:40:39.293Z,84.686279
2019-05-03T04:41:39.367Z,84.790039
2019-05-03T04:42:39.516Z,84.47876
2019-05-03T04:43:39.485Z,84.27124
2019-05-03T04:44:39.509Z,84.16748
2019-05-03T04:45:39.614Z,84.375
2019-05-03T04:46:39.752Z,84.47876
2019-05-03T04:47:39.875Z,84.58252
2019-05-03T04:48:39.975Z,84.16748
2019-05-03T04:49:40.084Z,84.069824
2019-05-03T04:50:40.101Z,84.375
2019-05-03T04:51:41.215Z,84.27124
2019-05-03T04:52:40.237Z,83.758545
2019-05-03T04:53:40.273Z,83.862305
2019-05-03T04:54:40.266Z,83.862305
2019-05-03T04:55:40.420Z,83.447266
2019-05-03T04:56:40.429Z,82.93457
2019-05-03T04:57:45.688Z,82.830811
2019-05-03T04:58:40.456Z,83.24585
2019-05-03T04:59:40.460Z,82.629395
2019-05-03T05:00:40.493Z,82.629395
2019-05-03T05:01:40.512Z,82.830811
2019-05-03T05:02:40.532Z,82.421875
2019-05-03T05:03:40.566Z,82.629395
2019-05-03T05:04:40.690Z,82.525635
2019-05-03T05:05:40.710Z,82.727051
2019-05-03T05:06:40.706Z,83.14209
2019-05-03T05:07:40.717Z,83.24585
2019-05-03T05:08:40.756Z,83.349609
2019-05-03T05:09:40.772Z,83.24585
2019-05-03T05:10:40.779Z,83.349609
2019-05-03T05:11:40.800Z,83.349609
2019-05-03T05:12:40.786Z,83.447266
2019-05-03T05:13:40.812Z,82.525635
2019-05-03T05:14:40.826Z,82.525635
2019-05-03T05:15:40.970Z,82.727051
2019-05-03T05:16:40.966Z,82.830811
2019-05-03T05:17:40.987Z,82.897949
2019-05-03T05:18:41.053Z,82.69043
2019-05-03T05:19:41.145Z,82.897949
2019-05-03T05:20:41.175Z,83.105469
2019-05-03T05:21:41.183Z,83.105469
2019-05-03T05:22:41.213Z,82.58667
2019-05-03T05:23:41.255Z,82.794189
2019-05-03T05:24:41.269Z,82.69043
2019-05-03T05:25:41.280Z,82.281494
2019-05-03T05:26:41.322Z,82.281494
2019-05-03T05:27:48.659Z,81.866455
2019-05-03T05:28:41.508Z,80.944824
2019-05-03T05:29:41.513Z,80.944824
2019-05-03T05:30:41.526Z,79.296875
2019-05-03T05:31:41.527Z,78.991699
2019-05-03T05:32:41.526Z,79.504395
2019-05-03T05:33:41.574Z,79.193115
2019-05-03T05:34:41.602Z,79.089355
2019-05-03T05:35:41.636Z,79.504395
2019-05-03T05:36:41.653Z,79.400635
2019-05-03T05:37:41.677Z,76.312256
2019-05-03T05:38:41.679Z,75.421143
2019-05-03T05:39:41.799Z,76.043701
2019-05-03T05:40:41.783Z,76.043701
2019-05-03T05:41:41.902Z,75.732422
2019-05-03T05:42:41.959Z,75.939941
2019-05-03T05:43:42.022Z,75.628662
2019-05-03T05:44:42.213Z,75.90332
2019-05-03T05:45:42.154Z,76.2146
2019-05-03T05:46:42.250Z,74.975586
2019-05-03T05:47:42.322Z,74.67041
2019-05-03T05:48:42.406Z,74.67041
2019-05-03T05:49:44.314Z,73.33374
2019-05-03T05:50:44.748Z,74.77417
2019-05-03T05:51:44.439Z,75.079346
2019-05-03T05:52:44.502Z,74.67041
2019-05-03T05:53:44.534Z,75.079346
2019-05-03T05:54:42.935Z,74.67041
2019-05-03T05:55:44.720Z,74.359131
2019-05-03T05:56:44.487Z,73.950195
2019-05-03T05:57:44.479Z,74.56665
2019-05-03T05:58:44.958Z,75.079346
2019-05-03T05:59:45.250Z,75.250244
2019-05-03T06:00:44.779Z,75.146484
2019-05-03T06:01:45.469Z,74.945068
2019-05-03T06:02:44.681Z,75.042725
2019-05-03T06:03:44.824Z,74.42627
2019-05-03T06:04:45.211Z,74.737549
2019-05-03T06:05:44.654Z,74.945068
2019-05-03T06:06:45.102Z,74.255371
2019-05-03T06:07:44.304Z,75.665283
2019-05-03T06:08:44.649Z,75.970459
2019-05-03T06:09:44.757Z,74.42627
2019-05-03T06:10:45.096Z,74.633789
2019-05-03T06:11:44.986Z,75.146484
2019-05-03T06:12:45.394Z,76.177979
2019-05-03T06:13:44.496Z,74.841309
2019-05-03T06:14:45.281Z,74.224854
2019-05-03T06:15:44.747Z,74.121094
2019-05-03T06:16:45.139Z,74.530029
2019-05-03T06:17:45.049Z,75.012207
2019-05-03T06:18:45.191Z,73.675537
2019-05-03T06:19:44.863Z,74.291992
2019-05-03T06:20:45.138Z,73.779297
2019-05-03T06:21:45.391Z,74.499512
2019-05-03T06:22:44.836Z,74.700928
2019-05-03T06:23:45.622Z,73.980713
2019-05-03T06:24:45.207Z,75.079346
2019-05-03T06:25:45.321Z,74.462891
2019-05-03T06:26:44.679Z,74.56665
2019-05-03T06:27:44.978Z,73.950195
2019-05-03T06:28:45.308Z,74.359131
2019-05-03T06:29:45.354Z,73.22998
2019-05-03T06:30:45.418Z,73.33374
2019-05-03T06:31:44.772Z,72.821045
2019-05-03T06:32:44.908Z,72.30835
2019-05-03T06:33:45.126Z,72.821045
2019-05-03T06:34:45.500Z,72.991943
2019-05-03T06:35:44.842Z,71.893311
2019-05-03T06:36:44.868Z,72.30835
2019-05-03T06:37:45.833Z,71.588135
2019-05-03T06:38:44.866Z,71.484375
2019-05-03T06:39:45.451Z,71.173096
2019-05-03T06:40:44.900Z,71.276855
2019-05-03T06:41:44.995Z,71.173096
2019-05-03T06:42:52.236Z,72.10083
2019-05-03T06:43:48.583Z,71.588135
2019-05-03T06:44:45.573Z,71.588135
2019-05-03T06:45:46.531Z,71.484375
2019-05-03T06:46:46.025Z,71.276855
2019-05-03T06:47:49.704Z,71.075439
2019-05-03T06:48:45.518Z,71.484375
2019-05-03T06:49:48.381Z,71.588135
2019-05-03T06:50:45.552Z,72.20459
2019-05-03T06:51:49.589Z,71.862793
2019-05-03T06:52:45.617Z,72.271729
2019-05-03T06:53:47.474Z,72.442627
2019-05-03T06:54:45.645Z,70.904541
2019-05-03T06:55:48.390Z,71.520996
2019-05-03T06:56:45.711Z,70.391846
2019-05-03T06:57:49.470Z,65.771484
2019-05-03T06:58:45.725Z,66.28418
2019-05-03T06:59:45.722Z,65.362549
2019-05-03T07:00:45.737Z,65.771484
2019-05-03T07:01:45.837Z,66.491699
2019-05-03T07:02:45.844Z,65.570068
2019-05-03T07:03:45.876Z,67.279053
2019-05-03T07:04:45.888Z,66.052246
2019-05-03T07:05:45.961Z,66.253662
2019-05-03T07:06:46.019Z,65.948486
2019-05-03T07:07:46.154Z,65.026855
2019-05-03T07:08:47.254Z,65.979004
2019-05-03T07:09:46.252Z,65.466309
2019-05-03T07:10:46.297Z,66.082764
2019-05-03T07:11:46.325Z,67.211914
2019-05-03T07:12:46.355Z,67.41333
2019-05-03T07:13:46.361Z,68.029785
2019-05-03T07:14:46.499Z,67.51709
2019-05-03T07:15:46.500Z,67.315674
2019-05-03T07:16:46.530Z,67.108154
2019-05-03T07:17:46.673Z,67.926025
2019-05-03T07:18:46.713Z,68.237305
2019-05-03T07:19:46.700Z,68.615723
2019-05-03T07:20:46.717Z,67.694092
2019-05-03T07:21:46.732Z,65.643311
2019-05-03T07:22:46.781Z,66.253662
2019-05-03T07:23:46.779Z,66.156006
2019-05-03T07:24:46.765Z,64.233398
2019-05-03T07:25:46.804Z,64.611816
2019-05-03T07:26:46.853Z,65.228271
2019-05-03T07:27:46.935Z,64.788818
2019-05-03T07:28:50.002Z,63.867188
2019-05-03T07:29:46.939Z,64.892578
2019-05-03T07:30:46.954Z,65.167236
2019-05-03T07:31:46.983Z,63.635254
2019-05-03T07:32:47.035Z,63.763428
2019-05-03T07:33:47.102Z,64.001465
2019-05-03T07:34:47.168Z,62.359619
2019-05-03T07:35:47.227Z,63.513184
2019-05-03T07:36:47.333Z,64.031982
2019-05-03T07:37:47.462Z,65.057373
2019-05-03T07:38:47.466Z,64.129639
2019-05-03T07:39:47.572Z,64.233398
2019-05-03T07:40:47.726Z,64.953613
2019-05-03T07:41:47.840Z,62.902832
2019-05-03T07:42:47.835Z,62.286377
2019-05-03T07:43:47.901Z,62.182617
2019-05-03T07:44:47.907Z,62.902832
2019-05-03T07:45:47.926Z,62.591553
2019-05-03T07:46:47.932Z,63.000488
2019-05-03T07:47:47.941Z,62.591553
2019-05-03T07:48:47.987Z,62.591553
2019-05-03T07:49:48.013Z,64.202881
2019-05-03T07:50:48.057Z,63.867188
2019-05-03T07:51:48.086Z,62.194824
2019-05-03T07:52:48.083Z,62.097168
2019-05-03T07:53:48.155Z,61.993408
2019-05-03T07:54:48.207Z,61.584473
2019-05-03T07:55:48.266Z,61.859131
2019-05-03T07:56:48.274Z,61.993408
2019-05-03T07:57:48.283Z,61.993408
2019-05-03T07:58:59.266Z,61.688232
2019-05-03T07:59:49.346Z,62.194824
2019-05-03T08:00:48.358Z,63.604736
2019-05-03T08:01:49.507Z,63.366699
2019-05-03T08:02:48.513Z,62.72583
2019-05-03T08:03:48.548Z,63.848877
2019-05-03T08:04:48.588Z,61.322021
2019-05-03T08:05:48.599Z,61.010742
2019-05-03T08:06:48.637Z,62.579346
2019-05-03T08:07:48.666Z,63.195801
2019-05-03T08:08:48.715Z,62.27417
2019-05-03T08:09:48.735Z,63.293457
2019-05-03T08:10:48.795Z,64.215088
2019-05-03T08:11:48.815Z,62.420654
2019-05-03T08:12:48.830Z,59.393311
2019-05-03T08:13:48.894Z,58.270264
2019-05-03T08:14:48.910Z,56.866455
2019-05-03T08:15:48.911Z,57.611084
2019-05-03T08:16:48.949Z,58.044434
2019-05-03T08:17:48.952Z,58.380127
2019-05-03T08:18:48.978Z,58.172607
2019-05-03T08:19:48.995Z,59.228516
2019-05-03T08:20:48.995Z,60.455322
2019-05-03T08:21:49.025Z,60.559082
2019-05-03T08:22:49.023Z,59.741211
2019-05-03T08:23:49.118Z,60.27832
2019-05-03T08:24:49.193Z,60.38208
2019-05-03T08:25:50.840Z,60.070801
2019-05-03T08:26:49.214Z,59.179688
2019-05-03T08:27:49.257Z,58.770752
2019-05-03T08:28:49.270Z,58.868408
2019-05-03T08:29:50.400Z,60.919189
2019-05-03T08:30:49.409Z,59.381104
2019-05-03T08:31:49.439Z,59.460449
2019-05-03T08:32:49.455Z,59.869385
2019-05-03T08:33:49.468Z,59.765625
2019-05-03T08:34:49.493Z,60.455322
2019-05-03T08:35:49.513Z,60.839844
2019-05-03T08:36:49.573Z,60.192871
2019-05-03T08:37:49.584Z,58.02002
2019-05-03T08:38:49.625Z,58.197021
2019-05-03T08:39:49.666Z,57.171631
2019-05-03T08:40:49.668Z,57.452393
2019-05-03T08:41:49.681Z,57.93457
2019-05-03T08:42:49.751Z,57.196045
2019-05-03T08:43:49.807Z,55.047607
2019-05-03T08:44:49.797Z,55.456543
2019-05-03T08:45:49.812Z,55.047607
2019-05-03T08:46:49.854Z,55.487061
2019-05-03T08:47:49.906Z,53.570557
2019-05-03T08:48:49.932Z,54.205322
2019-05-03T08:49:50.163Z,54.718018
2019-05-03T08:50:50.002Z,55.871582
2019-05-03T08:51:50.006Z,55.560303
2019-05-03T08:52:50.050Z,56.921387
2019-05-03T08:53:50.059Z,55.584717
2019-05-03T08:54:50.116Z,57.019043
2019-05-03T08:55:50.130Z,56.585693
2019-05-03T08:56:50.155Z,57.403564
2019-05-03T08:57:50.196Z,57.476807
2019-05-03T08:58:50.227Z,55.92041
2019-05-03T08:59:50.304Z,55.993652
2019-05-03T09:00:50.333Z,55.761719
2019-05-03T09:01:50.368Z,55.456543
2019-05-03T09:02:51.418Z,55.047607
2019-05-03T09:03:50.415Z,54.02832
2019-05-03T09:04:50.470Z,54.46167
2019-05-03T09:05:50.559Z,55.456543
2019-05-03T09:06:50.582Z,54.541016
2019-05-03T09:07:50.913Z,53.723145
2019-05-03T09:08:53.997Z,54.870605
2019-05-03T09:09:50.666Z,55.792236
2019-05-03T09:10:50.773Z,53.851318
2019-05-03T09:11:50.754Z,54.156494
2019-05-03T09:12:50.808Z,53.540039
2019-05-03T09:13:51.826Z,51.574707
2019-05-03T09:14:51.840Z,51.501465
2019-05-03T09:15:50.891Z,51.397705
2019-05-03T09:16:50.901Z,51.9104
2019-05-03T09:17:50.927Z,52.111816
2019-05-03T09:18:50.939Z,51.806641
2019-05-03T09:19:50.940Z,53.131104
2019-05-03T09:20:51.077Z,53.643799
2019-05-03T09:21:51.051Z,53.747559
2019-05-03T09:22:51.104Z,53.033447
2019-05-03T09:23:51.215Z,53.314209
2019-05-03T09:24:51.246Z,53.009033
2019-05-03T09:25:51.312Z,51.782227
2019-05-03T09:26:51.324Z,51.678467
2019-05-03T09:27:51.341Z,52.294922
2019-05-03T09:28:51.432Z,51.477051
2019-05-03T09:29:51.457Z,52.624512
2019-05-03T09:30:52.534Z,52.008057
2019-05-03T09:31:52.548Z,54.052734
2019-05-03T09:32:52.548Z,52.850342
2019-05-03T09:33:54.445Z,53.979492
2019-05-03T09:34:54.522Z,53.540039
2019-05-03T09:35:54.725Z,53.033447
2019-05-03T09:36:52.796Z,52.825928
2019-05-03T09:37:52.825Z,54.870605
2019-05-03T09:38:54.846Z,53.924561
2019-05-03T09:39:54.970Z,53.594971
2019-05-03T09:40:54.566Z,53.289795
2019-05-03T09:41:55.220Z,51.861572
2019-05-03T09:42:54.600Z,50.836182
2019-05-03T09:43:52.960Z,51.733398
2019-05-03T09:44:53.016Z,50.32959
2019-05-03T09:45:54.637Z,51.550293
2019-05-03T09:46:54.944Z,50.250244
2019-05-03T09:47:55.100Z,50.939941
2019-05-03T09:48:58.414Z,51.043701
2019-05-03T09:49:53.420Z,50.738525
2019-05-03T09:50:52.453Z,51.348877
2019-05-03T09:51:54.769Z,50.860596
2019-05-03T09:52:55.371Z,51.861572
2019-05-03T09:53:55.261Z,52.575684
2019-05-03T09:54:54.738Z,55.200195
2019-05-03T09:55:55.493Z,52.960205
2019-05-03T09:56:55.783Z,49.383545
2019-05-03T09:57:55.353Z,48.468018
2019-05-03T09:58:55.658Z,50.201416
2019-05-03T09:59:59.072Z,49.487305
2019-05-03T10:00:52.837Z,48.571777
2019-05-03T10:01:54.790Z,48.443604
2019-05-03T10:02:54.797Z,46.380615
2019-05-03T10:03:54.850Z,46.789551
2019-05-03T10:04:55.369Z,46.484375
2019-05-03T10:05:55.138Z,47.302246
2019-05-03T10:06:54.770Z,47.119141
2019-05-03T10:07:53.030Z,48.339844
2019-05-03T10:08:54.099Z,49.261475
2019-05-03T10:09:55.185Z,49.053955
2019-05-03T10:10:54.312Z,48.443604
2019-05-03T10:11:55.109Z,47.344971
2019-05-03T10:12:55.019Z,50.32959
2019-05-03T10:13:56.410Z,49.615479
2019-05-03T10:14:54.817Z,49.816895
2019-05-03T10:15:54.908Z,50.427246
2019-05-03T10:16:54.766Z,50.042725
2019-05-03T10:17:55.438Z,51.373291
2019-05-03T10:18:55.273Z,52.496338
2019-05-03T10:19:54.703Z,51.678467
2019-05-03T10:20:56.073Z,50.579834
2019-05-03T10:21:54.742Z,52.624512
2019-05-03T10:22:54.499Z,51.190186
2019-05-03T10:23:54.875Z,52.319336
2019-05-03T10:24:55.013Z,51.678467
2019-05-03T10:25:55.182Z,50.354004
2019-05-03T10:26:55.186Z,51.861572
2019-05-03T10:27:55.066Z,50.610352
2019-05-03T10:28:55.281Z,50.793457
2019-05-03T10:30:09.032Z,47.790527
2019-05-03T10:30:54.954Z,47.967529
2019-05-03T10:31:54.997Z,46.826172
2019-05-03T10:32:54.017Z,46.398926
2019-05-03T10:33:55.037Z,46.276855
2019-05-03T10:34:54.039Z,46.148682
2019-05-03T10:35:55.067Z,45.135498
2019-05-03T10:36:54.830Z,46.453857
2019-05-03T10:37:55.141Z,45.440674
2019-05-03T10:38:55.333Z,45.111084
2019-05-03T10:39:55.956Z,44.604492
2019-05-03T10:40:55.173Z,44.519043
2019-05-03T10:41:54.954Z,41.662598
2019-05-03T10:42:55.244Z,41.949463
2019-05-03T10:43:55.612Z,40.209961
2019-05-03T10:44:55.564Z,40.753174
2019-05-03T10:45:55.766Z,41.418457
2019-05-03T10:46:55.880Z,44.055176
2019-05-03T10:47:54.428Z,44.32373
2019-05-03T10:48:55.741Z,45.422363
2019-05-03T10:49:54.999Z,47.503662
2019-05-03T10:50:56.377Z,48.626709
2019-05-03T10:51:54.883Z,47.631836
2019-05-03T10:52:55.439Z,50.280762
2019-05-03T10:53:54.831Z,47.937012
2019-05-03T10:54:55.807Z,49.261475
2019-05-03T10:55:55.637Z,48.852539
2019-05-03T10:56:55.859Z,46.948242
2019-05-03T10:57:54.825Z,43.713379
2019-05-03T10:58:55.094Z,41.723633
2019-05-03T10:59:55.500Z,41.442871
2019-05-03T11:00:56.657Z,40.979004
2019-05-03T11:01:54.955Z,38.513184
2019-05-03T11:02:55.135Z,38.513184
2019-05-03T11:03:55.098Z,40.240479
2019-05-03T11:04:55.247Z,41.296387
2019-05-03T11:05:55.235Z,41.009521
2019-05-03T11:06:55.285Z,41.8396
2019-05-03T11:07:55.651Z,43.487549
2019-05-03T11:08:55.380Z,42.895508
2019-05-03T11:09:55.436Z,43.426514
2019-05-03T11:10:55.468Z,43.835449
2019-05-03T11:11:55.739Z,44.20166
2019-05-03T11:12:55.548Z,43.530273
2019-05-03T11:13:55.706Z,41.137695
2019-05-03T11:14:55.790Z,40.203857
2019-05-03T11:15:55.933Z,41.522217
2019-05-03T11:16:55.912Z,40.893555
2019-05-03T11:17:55.900Z,40.185547
2019-05-03T11:18:55.963Z,41.400146
2019-05-03T11:19:56.079Z,41.400146
2019-05-03T11:20:56.106Z,40.631104
2019-05-03T11:21:56.131Z,41.601562
2019-05-03T11:22:56.157Z,42.633057
2019-05-03T11:23:56.298Z,43.444824
2019-05-03T11:24:56.358Z,43.792725
2019-05-03T11:25:56.377Z,43.017578
2019-05-03T11:26:56.422Z,45.587158